Time;durP1;ratioP1;P1;durP2;ratioP2;P2;SDS_P1;SDS_P2;PMS_P1;PMS_P2;Temp;Humidity;BMP_temperature;BMP_pressure;BME280_temperature;BME280_humidity;BME280_pressure;Samples;Min_cycle;Max_cycle;Signal;HPM_P1;HPM_P2
2023/08/02 00:01:51;;;;;;;15.43;11.20;;;;;;;18.68;85.70;98760.00;4923551;28;20051;-64
2023/08/02 00:04:41;;;;;;;17.27;12.23;;;;;;;18.65;85.33;98756.81;4924348;28;20047;-65
2023/08/02 00:07:10;;;;;;;15.25;11.70;;;;;;;18.62;85.69;98768.84;4935322;28;20057;-68
2023/08/02 00:09:36;;;;;;;18.42;11.60;;;;;;;18.56;85.86;98761.41;4936140;28;20047;-68
2023/08/02 00:12:01;;;;;;;17.05;14.23;;;;;;;18.53;85.82;98775.25;4937975;28;20055;-68
2023/08/02 00:14:27;;;;;;;15.32;12.43;;;;;;;18.54;86.48;98759.91;4937489;28;20556;-66
2023/08/02 00:16:52;;;;;;;17.75;11.32;;;;;;;18.50;86.69;98752.19;4936566;28;20050;-65
2023/08/02 00:19:23;;;;;;;18.75;11.45;;;;;;;18.48;86.39;98756.94;4936052;28;20067;-64
2023/08/02 00:21:48;;;;;;;13.65;11.23;;;;;;;18.47;86.77;98754.41;4936963;28;20049;-65
2023/08/02 00:24:15;;;;;;;16.55;10.98;;;;;;;18.44;86.56;98749.38;4930760;28;20053;-67
2023/08/02 00:26:46;;;;;;;12.00;10.38;;;;;;;18.42;86.74;98757.63;4925135;28;20055;-65
2023/08/02 00:29:12;;;;;;;15.50;11.65;;;;;;;18.44;86.87;98749.38;4924596;28;20042;-66
2023/08/02 00:31:38;;;;;;;12.80;10.30;;;;;;;18.42;86.74;98752.25;4933823;28;20051;-66
2023/08/02 00:34:03;;;;;;;14.50;11.48;;;;;;;18.39;86.90;98751.78;4935530;28;20050;-67
2023/08/02 00:36:28;;;;;;;18.05;12.93;;;;;;;18.38;86.63;98756.34;4935975;28;20062;-67
2023/08/02 00:38:58;;;;;;;14.57;11.32;;;;;;;18.37;86.93;98765.47;4931926;28;20043;-65
2023/08/02 00:41:42;;;;;;;19.27;11.82;;;;;;;18.41;87.44;98753.25;4937151;28;20559;-64
2023/08/02 00:44:09;;;;;;;15.30;11.85;;;;;;;18.33;87.44;98742.53;4936301;28;20039;-71
2023/08/02 00:46:36;;;;;;;16.17;12.63;;;;;;;18.31;87.45;98744.56;4935897;28;20054;-66
2023/08/02 00:49:02;;;;;;;13.13;11.07;;;;;;;18.29;87.46;98743.91;4937097;28;20054;-65
2023/08/02 00:51:33;;;;;;;15.95;11.25;;;;;;;18.28;87.41;98753.06;4937156;28;20390;-65
2023/08/02 00:54:02;;;;;;;21.88;12.65;;;;;;;18.19;87.46;98755.97;4935904;28;20046;-66
2023/08/02 00:56:29;;;;;;;18.83;13.32;;;;;;;18.16;87.38;98784.16;4935927;28;20053;-66
2023/08/02 00:58:57;;;;;;;19.05;14.65;;;;;;;18.19;87.74;98769.44;4935609;28;20043;-66
2023/08/02 01:01:25;;;;;;;16.73;11.70;;;;;;;18.17;88.43;98753.47;4935530;28;20516;-69
2023/08/02 01:03:51;;;;;;;17.88;12.35;;;;;;;18.14;88.37;98764.63;4936459;28;20420;-67
2023/08/02 01:06:49;;;;;;;16.88;11.68;;;;;;;18.17;88.71;98780.44;4934951;28;20045;-75
2023/08/02 01:09:25;;;;;;;18.17;11.23;;;;;;;18.12;88.35;98763.94;4934740;28;20051;-69
2023/08/02 01:12:02;;;;;;;21.55;12.27;;;;;;;18.12;88.74;98753.16;4935544;28;20054;-68
2023/08/02 01:14:32;;;;;;;15.68;11.80;;;;;;;18.05;88.37;98744.13;4936743;28;20058;-66
2023/08/02 01:16:58;;;;;;;14.65;11.73;;;;;;;18.02;88.62;98739.06;4935417;28;20437;-66
2023/08/02 01:19:26;;;;;;;12.73;11.02;;;;;;;18.00;88.57;98747.34;4935281;28;20058;-65
2023/08/02 01:21:51;;;;;;;12.93;10.82;;;;;;;18.00;88.78;98746.50;4919042;28;20630;-66
2023/08/02 01:27:46;;;;;;;20.77;12.98;;;;;;;18.04;89.38;98764.00;4936902;28;20050;-66
2023/08/02 01:30:39;;;;;;;14.07;11.85;;;;;;;18.06;89.40;98760.09;4935233;28;20413;-66
2023/08/02 01:33:09;;;;;;;15.30;12.07;;;;;;;17.99;89.21;98772.63;4916043;29;20055;-66
2023/08/02 01:36:01;;;;;;;19.50;12.57;;;;;;;17.98;88.94;98753.91;4929651;28;20053;-64
2023/08/02 01:38:32;;;;;;;16.42;12.77;;;;;;;17.98;89.46;98759.31;4935138;28;20083;-64
2023/08/02 01:41:24;;;;;;;13.32;11.73;;;;;;;17.97;89.49;98757.63;4936171;28;20054;-63
2023/08/02 01:43:50;;;;;;;17.40;12.68;;;;;;;17.95;89.57;98755.09;4941643;28;20047;-66
2023/08/02 01:46:16;;;;;;;20.83;11.80;;;;;;;17.93;89.27;98759.03;4935151;28;20050;-66
2023/08/02 01:48:42;;;;;;;18.30;12.68;;;;;;;17.92;89.69;98776.22;4935194;28;20119;-67
2023/08/02 01:51:09;;;;;;;15.60;12.35;;;;;;;17.91;89.64;98763.75;4936227;28;20049;-67
2023/08/02 01:53:36;;;;;;;15.27;13.38;;;;;;;17.91;89.90;98764.59;4926223;28;20062;-67
2023/08/02 01:56:02;;;;;;;23.83;12.70;;;;;;;17.89;89.69;98755.00;4937013;28;20051;-67
2023/08/02 01:58:57;;;;;;;25.27;14.85;;;;;;;17.99;89.98;98755.59;4954460;28;20054;-67
2023/08/02 02:01:22;;;;;;;16.73;14.30;;;;;;;17.92;89.24;98776.22;4922116;28;20047;-67
2023/08/02 02:03:47;;;;;;;15.38;13.05;;;;;;;17.91;89.88;98761.88;4922220;28;20051;-67
2023/08/02 02:06:13;;;;;;;18.27;14.85;;;;;;;17.94;89.90;98758.00;4922300;28;20062;-67
2023/08/02 02:08:38;;;;;;;17.80;13.40;;;;;;;17.93;90.63;98761.72;4937054;28;20050;-67
2023/08/02 02:11:07;;;;;;;19.45;14.40;;;;;;;17.97;90.57;98773.81;4938900;28;20039;-64
2023/08/02 02:13:59;;;;;;;15.50;12.75;;;;;;;18.00;90.71;98770.75;4938687;28;20070;-67
2023/08/02 02:16:52;;;;;;;17.40;11.88;;;;;;;18.08;90.41;98765.31;4939993;28;20073;-67
2023/08/02 02:19:46;;;;;;;13.75;10.80;;;;;;;18.02;89.81;98760.66;4922301;28;20055;-65
2023/08/02 02:22:12;;;;;;;15.88;12.70;;;;;;;18.04;89.80;98770.25;4937271;28;20043;-66
2023/08/02 02:24:37;;;;;;;14.10;12.02;;;;;;;18.06;89.71;98795.16;4936590;28;20047;-67
2023/08/02 02:27:03;;;;;;;15.65;11.77;;;;;;;18.10;89.25;98772.22;4940063;28;20045;-66
2023/08/02 02:29:28;;;;;;;17.38;13.48;;;;;;;18.16;89.21;98767.97;4939620;28;20404;-66
2023/08/02 02:31:54;;;;;;;17.33;14.23;;;;;;;18.26;88.60;98762.34;4933539;28;20047;-66
2023/08/02 02:34:23;;;;;;;18.30;13.35;;;;;;;18.30;89.12;98760.94;4939667;28;20051;-66
2023/08/02 02:36:53;;;;;;;17.67;13.93;;;;;;;18.35;89.17;98762.09;4938309;28;20058;-68
2023/08/02 02:42:38;;;;;;;18.83;13.73;;;;;;;18.44;89.22;98770.97;4939490;28;20050;-68
2023/08/02 02:45:28;;;;;;;16.63;13.35;;;;;;;18.54;88.84;98787.75;4939655;28;20489;-70
2023/08/02 02:47:59;;;;;;;17.20;12.90;;;;;;;18.70;88.64;98792.22;4921516;28;20051;-70
2023/08/02 02:50:27;;;;;;;21.20;14.27;;;;;;;18.79;88.30;98770.34;4937396;28;20047;-70
2023/08/02 02:52:55;;;;;;;15.48;13.38;;;;;;;18.91;87.64;98768.03;4914330;28;20046;-69
2023/08/02 02:55:23;;;;;;;18.98;12.82;;;;;;;19.02;87.13;98773.00;4919338;28;20050;-70
2023/08/02 02:57:50;;;;;;;19.48;12.70;;;;;;;19.11;86.53;98763.78;4937278;28;20066;-71
2023/08/02 03:00:16;;;;;;;14.95;11.75;;;;;;;19.25;85.86;98763.97;4938724;28;20429;-71
2023/08/02 03:02:42;;;;;;;14.63;12.57;;;;;;;19.35;85.09;98762.66;4938953;28;20047;-70
2023/08/02 03:08:23;;;;;;;17.52;11.65;;;;;;;19.63;84.38;98773.69;4934956;28;20050;-69
2023/08/02 03:10:51;;;;;;;16.98;12.02;;;;;;;19.77;83.80;98766.56;4937682;28;20054;-70
2023/08/02 03:13:18;;;;;;;17.50;13.43;;;;;;;19.88;83.93;98777.72;4935906;28;20034;-69
2023/08/02 03:15:44;;;;;;;23.13;15.55;;;;;;;20.02;83.36;98761.66;4936205;28;20812;-70
2023/08/02 03:18:11;;;;;;;14.98;13.38;;;;;;;20.14;83.20;98765.53;4934383;28;20054;-70
2023/08/02 03:20:43;;;;;;;13.88;12.38;;;;;;;20.26;82.68;98761.28;4934199;28;20054;-70
2023/08/02 03:23:11;;;;;;;17.42;13.15;;;;;;;20.39;81.97;98752.50;4925838;28;20046;-70
2023/08/02 03:25:38;;;;;;;19.52;14.95;;;;;;;20.50;81.85;98755.53;4936765;28;20046;-70
2023/08/02 03:28:04;;;;;;;19.92;15.48;;;;;;;20.60;81.09;98750.63;4936660;28;20054;-70
2023/08/02 03:30:33;;;;;;;19.48;14.02;;;;;;;20.71;80.81;98751.13;4934472;28;20042;-70
2023/08/02 03:33:24;;;;;;;22.65;15.32;;;;;;;20.84;80.47;98749.34;4927495;28;20069;-68
2023/08/02 03:35:49;;;;;;;19.08;15.43;;;;;;;20.95;80.28;98753.41;4935086;28;20874;-69
2023/08/02 03:38:19;;;;;;;21.70;17.10;;;;;;;21.10;79.93;98762.25;4936568;28;20047;-70
2023/08/02 03:40:47;;;;;;;22.45;15.88;;;;;;;21.19;79.47;98760.25;4936414;28;20054;-70
2023/08/02 03:43:15;;;;;;;25.02;16.63;;;;;;;21.31;79.18;98764.09;4938238;28;20034;-69
2023/08/02 03:46:06;;;;;;;22.33;17.42;;;;;;;21.42;78.64;98755.41;4936810;28;20062;-70
2023/08/02 03:48:33;;;;;;;22.45;15.40;;;;;;;21.54;78.03;98758.38;4920656;28;20046;-69
2023/08/02 03:50:59;;;;;;;24.15;17.65;;;;;;;21.63;77.75;98763.44;4940701;28;20043;-69
2023/08/02 03:53:30;;;;;;;24.50;17.88;;;;;;;21.74;77.28;98791.84;4940536;28;20047;-70
2023/08/02 03:55:55;;;;;;;25.80;16.30;;;;;;;21.84;76.94;98765.19;4937445;28;20042;-71
2023/08/02 04:01:15;;;;;;;29.13;17.67;;;;;;;22.12;76.60;98761.56;4936214;28;20047;-70
2023/08/02 04:03:41;;;;;;;22.70;15.88;;;;;;;22.25;76.27;98767.00;4920548;28;20062;-71
2023/08/02 04:06:07;;;;;;;23.80;15.25;;;;;;;22.42;75.91;98752.00;4938139;28;20421;-71
2023/08/02 04:08:33;;;;;;;27.92;15.48;;;;;;;22.63;74.67;98756.41;4936315;28;20050;-71
2023/08/02 04:11:06;;;;;;;22.65;15.27;;;;;;;22.83;74.05;98764.59;4920350;28;20054;-71
2023/08/02 04:13:32;;;;;;;19.52;15.57;;;;;;;23.01;73.78;98760.22;4937683;28;20046;-71
2023/08/02 04:15:59;;;;;;;23.08;15.80;;;;;;;23.08;73.18;98754.75;4936532;28;20042;-71
2023/08/02 04:18:24;;;;;;;20.65;14.85;;;;;;;23.05;72.60;98774.19;4936448;28;20413;-71
2023/08/02 04:20:50;;;;;;;21.40;15.15;;;;;;;23.00;72.26;98761.25;4936622;28;20051;-71
2023/08/02 04:23:15;;;;;;;20.77;15.88;;;;;;;22.99;72.38;98758.72;4936114;28;20055;-71
2023/08/02 04:25:43;;;;;;;20.45;16.50;;;;;;;23.06;72.18;98765.81;4937458;28;20516;-70
2023/08/02 04:28:11;;;;;;;26.25;16.48;;;;;;;23.21;71.73;98760.16;4937375;28;20054;-70
2023/08/02 04:30:37;;;;;;;25.73;16.23;;;;;;;23.34;70.85;98748.44;4920467;28;20058;-74
2023/08/02 04:33:08;;;;;;;23.30;15.43;;;;;;;23.61;70.38;98754.63;4936591;28;20055;-72
2023/08/02 04:36:00;;;;;;;25.15;16.90;;;;;;;23.93;69.15;98780.09;4937781;28;20043;-70
2023/08/02 04:38:26;;;;;;;22.88;15.30;;;;;;;24.23;68.19;98754.81;4936277;28;20051;-69
2023/08/02 04:40:56;;;;;;;21.77;15.98;;;;;;;24.39;67.06;98758.03;4937230;28;20410;-71
2023/08/02 04:43:24;;;;;;;23.92;14.85;;;;;;;24.53;65.94;98755.03;4935925;28;20502;-70
2023/08/02 04:45:54;;;;;;;23.73;17.33;;;;;;;24.56;64.96;98762.75;4937146;28;20042;-71
2023/08/02 04:48:24;;;;;;;21.23;14.13;;;;;;;24.68;64.89;98759.31;4937086;28;20047;-69
2023/08/02 04:50:49;;;;;;;24.00;14.13;;;;;;;25.01;64.73;98759.06;4937149;28;20046;-70
2023/08/02 04:53:17;;;;;;;24.48;14.85;;;;;;;25.37;64.09;98748.22;4937071;28;20501;-69
2023/08/02 04:55:44;;;;;;;18.27;13.38;;;;;;;25.76;62.78;98752.41;4937090;28;20061;-69
2023/08/02 04:58:12;;;;;;;25.42;14.30;;;;;;;25.83;61.63;98736.78;4935750;28;20047;-69
2023/08/02 05:00:46;;;;;;;21.63;14.10;;;;;;;25.92;61.10;98751.78;4936391;28;20050;-68
2023/08/02 05:03:13;;;;;;;20.73;14.90;;;;;;;25.95;60.83;98751.34;4936874;28;20062;-70
2023/08/02 05:05:40;;;;;;;18.50;14.77;;;;;;;25.99;60.58;98757.16;4935892;28;20049;-70
2023/08/02 05:10:58;;;;;;;18.35;12.00;;;;;;;26.42;60.16;98750.69;4935018;28;20514;-70
2023/08/02 05:13:26;;;;;;;24.15;12.88;;;;;;;26.58;59.35;98750.88;4936861;28;20050;-70
2023/08/02 05:15:54;;;;;;;18.45;12.85;;;;;;;26.47;58.38;98743.47;4936576;28;20042;-69
2023/08/02 05:18:20;;;;;;;16.48;10.60;;;;;;;26.40;58.52;98745.50;4936593;28;20054;-68
2023/08/02 05:20:46;;;;;;;14.60;11.27;;;;;;;26.56;58.61;98752.16;4935134;28;20061;-71
2023/08/02 05:23:36;;;;;;;13.13;9.75;;;;;;;26.42;57.63;98743.34;4936737;28;20046;-71
2023/08/02 05:26:05;;;;;;;16.02;10.43;;;;;;;26.25;57.93;98767.75;4919054;28;20438;-70
2023/08/02 05:28:33;;;;;;;14.45;9.70;;;;;;;26.45;58.50;98736.56;4919723;28;20058;-70
2023/08/02 05:31:10;;;;;;;15.85;11.40;;;;;;;26.72;57.59;98735.09;4934987;28;20042;-70
2023/08/02 05:33:38;;;;;;;13.73;11.68;;;;;;;26.72;56.90;98773.38;4934939;28;20047;-70
2023/08/02 05:36:12;;;;;;;16.75;10.80;;;;;;;26.77;57.09;98752.44;4936529;28;20060;-68
2023/08/02 05:38:45;;;;;;;14.85;10.82;;;;;;;26.92;56.83;98734.75;4919651;28;20505;-69
2023/08/02 05:41:11;;;;;;;18.10;11.73;;;;;;;27.15;56.38;98744.91;4916113;29;20051;-71
2023/08/02 05:43:36;;;;;;;14.65;10.00;;;;;;;27.52;55.57;98734.53;4915964;29;20528;-68
2023/08/02 05:48:52;;;;;;;14.05;9.38;;;;;;;28.09;52.80;98730.81;4917454;29;20043;-69
2023/08/02 05:51:22;;;;;;;13.20;8.73;;;;;;;27.74;53.35;98744.63;4932169;28;20055;-69
2023/08/02 05:54:16;;;;;;;8.77;7.28;;;;;;;27.68;53.84;98739.28;4917319;29;20050;-69
2023/08/02 05:56:43;;;;;;;15.10;8.95;;;;;;;27.89;53.47;98746.00;4924743;28;20116;-69
2023/08/02 06:02:26;;;;;;;15.02;10.55;;;;;;;27.81;52.74;98756.28;4936643;28;20061;-69
2023/08/02 06:04:53;;;;;;;10.63;9.07;;;;;;;27.53;54.11;98742.50;4936399;28;20520;-68
2023/08/02 06:07:24;;;;;;;12.20;9.65;;;;;;;27.59;53.96;98732.50;4936020;28;20505;-69
2023/08/02 06:09:51;;;;;;;14.35;8.98;;;;;;;27.85;53.84;98734.72;4936081;28;20516;-69
2023/08/02 06:12:18;;;;;;;19.75;10.85;;;;;;;27.89;53.71;98735.03;4936125;28;20058;-69
2023/08/02 06:15:12;;;;;;;14.60;10.90;;;;;;;28.21;53.31;98738.19;4935983;28;20638;-68
2023/08/02 06:17:38;;;;;;;;;;;;;;;28.70;52.56;98733.84;4918768;28;20046;-69
2023/08/02 06:20:03;;;;;;;15.90;10.60;;;;;;;28.36;52.74;98731.06;4918166;28;19922;-69
2023/08/02 06:22:30;;;;;;;16.08;10.23;;;;;;;28.68;52.21;98711.31;4936061;28;20043;-69
2023/08/02 06:24:55;;;;;;;16.65;10.70;;;;;;;28.98;51.04;98744.78;4936075;28;20055;-70
2023/08/02 06:27:21;;;;;;;15.95;9.50;;;;;;;29.05;51.25;98717.97;4936228;28;20053;-69
2023/08/02 06:29:46;;;;;;;9.77;8.10;;;;;;;28.60;51.18;98725.44;4936142;28;20437;-68
2023/08/02 06:32:13;;;;;;;11.05;8.60;;;;;;;27.93;52.55;98748.03;4943202;28;20058;-69
2023/08/02 06:34:41;;;;;;;13.70;9.18;;;;;;;27.49;54.31;98735.84;4936125;28;20047;-69
2023/08/02 06:37:10;;;;;;;15.25;8.60;;;;;;;27.60;54.76;98726.78;4934842;28;20057;-69
2023/08/02 06:39:39;;;;;;;17.40;9.02;;;;;;;28.56;53.14;98725.09;4934664;28;20069;-68
2023/08/02 06:45:01;;;;;;;17.05;9.18;;;;;;;28.14;51.71;98730.06;4939464;28;20413;-69
2023/08/02 06:47:30;;;;;;;12.90;9.80;;;;;;;27.80;52.89;98726.38;4937910;28;20062;-69
2023/08/02 06:49:59;;;;;;;14.38;8.48;;;;;;;28.74;52.22;98722.13;4939447;28;20051;-69
2023/08/02 06:52:24;;;;;;;10.20;8.50;;;;;;;30.59;49.18;98720.47;4939019;28;20034;-70
2023/08/02 06:54:53;;;;;;;14.48;9.02;;;;;;;31.21;46.08;98724.56;4939456;28;20054;-69
2023/08/02 06:57:22;;;;;;;15.82;9.05;;;;;;;30.25;47.23;98728.09;4939262;28;20241;-70
2023/08/02 07:02:40;;;;;;;13.43;10.48;;;;;;;28.90;50.54;98721.31;4939138;28;20394;-69
2023/08/02 07:05:05;;;;;;;12.50;8.98;;;;;;;30.03;49.39;98721.81;4939081;28;20042;-70
2023/08/02 07:07:35;;;;;;;16.50;9.15;;;;;;;29.93;48.15;98721.66;4938939;28;20042;-70
2023/08/02 07:10:05;;;;;;;13.65;9.13;;;;;;;29.72;48.06;98728.81;4937512;28;20078;-69
2023/08/02 07:12:31;;;;;;;11.43;8.32;;;;;;;30.33;47.21;98724.06;4938800;28;20047;-70
2023/08/02 07:15:24;;;;;;;10.63;8.40;;;;;;;30.84;46.56;98711.59;4938899;28;20034;-68
2023/08/02 07:17:50;;;;;;;12.32;8.88;;;;;;;30.13;46.22;98721.94;4938690;28;20072;-69
2023/08/02 07:20:15;;;;;;;13.25;9.88;;;;;;;29.53;47.32;98714.59;4936950;28;20066;-70
2023/08/02 07:23:08;;;;;;;13.88;9.68;;;;;;;30.02;47.47;98716.59;4939026;28;20058;-70
2023/08/02 07:25:34;;;;;;;14.80;8.75;;;;;;;31.17;45.32;98704.97;4938783;28;20060;-70
2023/08/02 07:30:51;;;;;;;13.20;8.85;;;;;;;31.93;43.02;98699.06;4938670;28;20042;-70
2023/08/02 07:33:17;;;;;;;11.38;8.68;;;;;;;32.05;42.85;98705.16;4938472;28;20039;-69
2023/08/02 07:35:46;;;;;;;13.07;9.02;;;;;;;31.56;43.14;98712.94;4938501;28;20524;-70
2023/08/02 07:38:14;;;;;;;10.20;8.15;;;;;;;30.65;44.36;98708.44;4936833;28;20054;-70
2023/08/02 07:40:43;;;;;;;12.95;8.23;;;;;;;29.79;46.02;98706.66;4938289;28;20039;-69
2023/08/02 07:43:34;;;;;;;;;;;;;;;29.83;46.97;98708.63;4939053;28;20047;-67
2023/08/02 07:45:59;;;;;;;12.55;6.85;;;;;;;29.79;47.54;98710.25;4937163;28;20039;-69
2023/08/02 07:48:25;;;;;;;12.38;6.97;;;;;;;31.09;44.92;98704.66;4936240;28;20113;-69
2023/08/02 07:51:15;;;;;;;10.57;6.30;;;;;;;32.69;42.20;98702.78;4938506;28;20050;-68
2023/08/02 07:53:42;;;;;;;6.88;6.18;;;;;;;33.99;39.78;98699.19;4920133;28;20046;-70
2023/08/02 07:56:11;;;;;;;10.18;6.90;;;;;;;34.69;37.83;98719.25;4937147;28;20050;-69
2023/08/02 07:58:37;;;;;;;9.93;7.05;;;;;;;34.06;38.17;98713.56;4938056;28;20035;-70
2023/08/02 08:01:05;;;;;;;6.82;5.90;;;;;;;32.68;40.14;98711.34;4936026;28;20055;-69
2023/08/02 08:03:33;;;;;;;9.57;6.60;;;;;;;31.57;41.53;98709.91;4937969;28;20054;-69
2023/08/02 08:05:58;;;;;;;8.30;5.47;;;;;;;32.06;41.68;98715.88;4938104;28;20058;-69
2023/08/02 08:08:27;;;;;;;8.75;6.25;;;;;;;31.99;41.54;98704.31;4938007;28;20042;-68
2023/08/02 08:10:53;;;;;;;9.18;6.60;;;;;;;31.09;42.24;98727.53;4935874;28;20429;-71
2023/08/02 08:13:18;;;;;;;8.45;6.90;;;;;;;30.28;43.59;98722.06;4937924;28;20513;-69
2023/08/02 08:15:49;;;;;;;12.27;6.85;;;;;;;30.33;43.71;98707.56;4937897;28;20054;-69
2023/08/02 08:18:15;;;;;;;9.10;6.93;;;;;;;30.15;44.62;98705.16;4920400;28;20503;-68
2023/08/02 08:20:41;;;;;;;10.18;7.13;;;;;;;30.40;44.75;98735.69;4946537;28;20059;-69
2023/08/02 08:23:33;;;;;;;10.70;7.43;;;;;;;30.59;43.47;98712.22;4937735;28;20046;-68
2023/08/02 08:25:59;;;;;;;9.40;6.38;;;;;;;30.25;44.31;98702.50;4904333;28;20066;-68
2023/08/02 08:28:26;;;;;;;12.43;7.72;;;;;;;30.35;44.53;98682.56;4937781;28;20437;-68
2023/08/02 08:31:01;;;;;;;9.45;7.55;;;;;;;31.52;42.91;98687.81;4922477;28;20498;-68
2023/08/02 08:34:17;;;;;;;8.70;7.78;;;;;;;32.80;39.70;98679.63;4921974;29;20058;-69
2023/08/02 08:36:43;;;;;;;10.32;7.75;;;;;;;33.64;38.00;98680.81;4922740;29;20051;-70
2023/08/02 08:39:34;;;;;;;12.88;7.88;;;;;;;35.07;36.49;98680.72;4918796;29;20054;-71
2023/08/02 08:44:55;;;;;;;12.48;8.85;;;;;;;36.21;34.17;98686.31;4925205;28;20421;-70
2023/08/02 08:47:27;;;;;;;11.20;8.38;;;;;;;38.26;32.43;98688.66;4937366;28;20038;-69
2023/08/02 08:50:00;;;;;;;12.88;8.45;;;;;;;40.36;30.18;98662.00;4935882;28;20046;-68
2023/08/02 08:52:31;;;;;;;11.85;9.23;;;;;;;41.99;27.42;98671.91;4937788;28;20050;-69
2023/08/02 08:54:56;;;;;;;11.07;9.02;;;;;;;43.53;26.13;98670.78;4938871;28;20042;-69
2023/08/02 08:57:22;;;;;;;12.15;9.38;;;;;;;44.82;24.65;98663.16;4939272;28;20054;-69
2023/08/02 08:59:47;;;;;;;9.90;8.73;;;;;;;45.36;23.86;98665.47;4920190;28;20043;-69
2023/08/02 09:02:14;;;;;;;12.52;10.18;;;;;;;43.83;24.15;98664.94;4937179;28;20042;-69
2023/08/02 09:04:50;;;;;;;13.95;10.45;;;;;;;42.51;26.34;98684.72;4936250;28;20233;-70
2023/08/02 09:07:16;;;;;;;13.70;9.70;;;;;;;42.43;25.97;98663.22;4936958;28;20046;-69
2023/08/02 09:09:42;;;;;;;15.07;9.68;;;;;;;42.37;25.77;98656.97;4934930;28;20537;-69
2023/08/02 09:12:44;;;;;;;10.23;8.98;;;;;;;43.98;24.26;98655.81;4936758;28;20053;-69
2023/08/02 09:15:15;;;;;;;10.55;9.52;;;;;;;44.20;24.09;98654.47;4935344;28;20046;-68
2023/08/02 09:17:50;;;;;;;12.95;10.20;;;;;;;43.77;24.10;98659.56;4935254;28;20062;-69
2023/08/02 09:21:08;;;;;;;9.98;8.90;;;;;;;43.92;25.05;98640.34;4935233;28;20050;-69
2023/08/02 09:23:34;;;;;;;11.35;10.35;;;;;;;41.92;25.46;98639.97;4937000;28;20183;-70
2023/08/02 09:26:14;;;;;;;11.07;9.50;;;;;;;40.30;27.51;98646.53;4935746;28;20050;-69
2023/08/02 09:29:15;;;;;;;10.45;8.80;;;;;;;38.37;29.94;98640.78;4918856;28;20055;-70
2023/08/02 09:31:44;;;;;;;12.25;8.90;;;;;;;36.93;30.71;98643.22;4861996;29;20052;-70
2023/08/02 09:34:14;;;;;;;12.00;8.73;;;;;;;38.21;29.86;98653.41;4862064;29;20495;-69
2023/08/02 09:36:53;;;;;;;10.60;9.52;;;;;;;38.58;28.56;98634.72;4877302;29;20944;-70
2023/08/02 09:39:19;;;;;;;9.27;8.43;;;;;;;38.01;29.21;98632.41;4877700;29;20052;-70
2023/08/02 09:41:44;;;;;;;8.85;7.95;;;;;;;38.15;29.46;98626.84;4861413;29;20153;-69
2023/08/02 09:44:22;;;;;;;10.20;9.00;;;;;;;39.79;28.46;98631.34;4877319;29;20044;-70
2023/08/02 09:46:49;;;;;;;10.45;8.82;;;;;;;41.85;26.36;98623.72;4861295;29;20055;-70
2023/08/02 09:49:19;;;;;;;10.40;8.75;;;;;;;43.18;24.50;98636.72;4876904;29;20183;-71
2023/08/02 09:51:44;;;;;;;10.60;9.60;;;;;;;43.83;23.59;98605.97;4877191;29;20044;-69
2023/08/02 09:54:11;;;;;;;12.32;9.73;;;;;;;44.46;23.19;98615.53;4876659;29;20048;-69
2023/08/02 09:57:28;;;;;;;11.57;10.52;;;;;;;44.81;22.38;98618.56;4877372;29;20063;-69
2023/08/02 09:59:55;;;;;;;12.68;11.50;;;;;;;44.11;22.55;98601.25;4876634;29;20543;-69
2023/08/02 10:02:26;;;;;;;13.93;10.32;;;;;;;43.46;23.25;98581.53;4877238;29;20212;-69
2023/08/02 10:04:56;;;;;;;14.60;10.80;;;;;;;43.48;23.21;98598.03;4877164;29;20410;-69
2023/08/02 10:07:26;;;;;;;12.10;10.85;;;;;;;42.96;23.30;98623.09;4921885;28;20413;-69
2023/08/02 10:09:53;;;;;;;11.77;9.45;;;;;;;42.39;23.69;98598.63;4952409;28;20054;-69
2023/08/02 10:12:20;;;;;;;9.73;8.40;;;;;;;41.79;24.13;98591.47;4935692;28;20042;-69
2023/08/02 10:18:03;;;;;;;10.05;9.05;;;;;;;40.59;25.31;98598.38;4937209;28;20504;-70
2023/08/02 10:20:54;;;;;;;10.18;9.02;;;;;;;40.22;26.41;98577.53;4937629;28;20081;-70
2023/08/02 10:23:19;;;;;;;14.25;8.88;;;;;;;39.88;26.13;98589.53;4939073;28;20043;-68
2023/08/02 10:25:48;;;;;;;10.10;9.07;;;;;;;41.14;25.22;98559.25;4939557;28;20042;-69
2023/08/02 10:28:17;;;;;;;10.13;9.23;;;;;;;42.85;23.62;98566.66;4937787;28;20051;-70
2023/08/02 10:31:12;;;;;;;11.52;10.43;;;;;;;44.15;22.37;98586.09;4938769;28;20047;-71
2023/08/02 10:33:37;;;;;;;13.68;10.45;;;;;;;42.42;23.46;98550.31;4939246;28;20489;-69
2023/08/02 10:36:07;;;;;;;11.20;10.05;;;;;;;39.88;26.98;98556.84;4937435;28;20046;-71
2023/08/02 10:38:38;;;;;;;9.38;8.57;;;;;;;38.15;28.77;98548.91;4938183;28;20046;-70
2023/08/02 10:41:09;;;;;;;9.13;8.25;;;;;;;36.87;29.57;98547.22;4936235;28;20045;-70
2023/08/02 10:43:54;;;;;;;9.20;8.30;;;;;;;36.29;30.87;98547.69;4937216;28;20047;-69
2023/08/02 10:46:32;;;;;;;10.15;8.63;;;;;;;35.17;31.77;98548.44;4930640;28;20429;-70
2023/08/02 10:49:08;;;;;;;10.30;8.98;;;;;;;34.49;31.91;98562.47;4936226;28;20055;-70
2023/08/02 10:51:37;;;;;;;12.90;8.82;;;;;;;33.20;33.44;98561.88;4931607;28;20035;-69
2023/08/02 10:54:22;;;;;;;9.00;8.02;;;;;;;32.33;34.91;98555.72;4936911;28;20516;-68
2023/08/02 10:56:53;;;;;;;9.18;8.25;;;;;;;31.59;36.25;98542.41;4939170;28;20055;-70
2023/08/02 10:59:25;;;;;;;9.32;7.47;;;;;;;31.22;36.69;98550.81;4937710;28;20066;-70
2023/08/02 11:01:57;;;;;;;8.18;7.38;;;;;;;30.80;37.69;98547.28;4905680;28;20513;-69
2023/08/02 11:04:24;;;;;;;7.78;7.03;;;;;;;30.42;37.91;98562.97;4937884;28;20066;-68
2023/08/02 11:06:51;;;;;;;14.27;7.88;;;;;;;30.27;37.59;98544.44;4939155;28;20054;-69
2023/08/02 11:09:42;;;;;;;11.05;8.15;;;;;;;29.82;38.42;98535.78;4937364;28;20054;-70
2023/08/02 11:12:17;;;;;;;9.70;7.97;;;;;;;29.68;39.32;98540.06;4935010;28;20042;-68
2023/08/02 11:14:48;;;;;;;7.93;7.13;;;;;;;29.42;39.10;98541.72;4938826;28;20050;-67
2023/08/02 11:17:20;;;;;;;13.25;7.75;;;;;;;29.41;39.87;98545.53;4938943;28;20046;-69
2023/08/02 11:20:40;;;;;;;9.40;7.88;;;;;;;29.59;39.16;98548.75;4926205;28;20046;-68
2023/08/02 11:23:23;;;;;;;11.48;7.68;;;;;;;29.44;39.92;98539.53;4938077;28;20087;-68
2023/08/02 11:26:06;;;;;;;8.38;7.50;;;;;;;29.22;39.95;98537.63;4937737;28;20049;-69
2023/08/02 11:28:48;;;;;;;7.88;6.93;;;;;;;29.15;39.96;98536.13;4938127;28;20058;-69
2023/08/02 11:31:17;;;;;;;10.98;7.93;;;;;;;28.96;41.28;98543.03;4937690;28;20489;-69
2023/08/02 11:33:43;;;;;;;11.27;7.93;;;;;;;28.84;40.95;98543.16;4920985;28;20062;-68
2023/08/02 11:39:04;;;;;;;11.90;8.00;;;;;;;28.51;41.63;98536.66;4937423;28;20050;-70
2023/08/02 11:41:30;;;;;;;8.20;7.22;;;;;;;28.34;41.69;98532.25;4937444;28;20039;-69
2023/08/02 11:43:56;;;;;;;10.25;7.95;;;;;;;28.19;43.29;98549.31;4936789;28;20058;-69
2023/08/02 11:46:27;;;;;;;9.15;8.20;;;;;;;28.27;43.72;98528.88;4947233;28;20058;-70
2023/08/02 11:48:54;;;;;;;8.63;7.75;;;;;;;28.21;43.53;98529.88;4937443;28;20105;-68
2023/08/02 11:51:21;;;;;;;9.15;7.50;;;;;;;28.29;43.93;98534.94;4937455;28;20401;-71
2023/08/02 11:53:57;;;;;;;9.32;8.00;;;;;;;28.41;43.75;98531.03;4936570;28;20529;-69
2023/08/02 11:56:49;;;;;;;12.45;9.05;;;;;;;28.58;43.80;98538.38;4938075;28;20049;-68
2023/08/02 12:02:21;;;;;;;9.32;7.57;;;;;;;27.82;46.10;98537.97;4936931;28;20771;-69
2023/08/02 12:04:47;;;;;;;8.82;7.93;;;;;;;27.28;47.42;98537.50;4930658;28;20062;-66
2023/08/02 12:07:23;;;;;;;11.75;8.73;;;;;;;26.93;48.63;98540.34;4927704;28;20054;-67
2023/08/02 12:09:49;;;;;;;14.88;7.63;;;;;;;26.58;49.71;98536.81;4926890;28;20778;-71
2023/08/02 12:12:27;;;;;;;13.85;8.48;;;;;;;26.55;51.05;98549.03;4934996;28;20046;-70
2023/08/02 12:17:43;;;;;;;12.32;7.28;;;;;;;26.29;51.97;98555.00;4928886;28;20508;-66
2023/08/02 12:20:12;;;;;;;10.75;6.80;;;;;;;26.03;53.53;98567.19;4933844;28;20043;-65
2023/08/02 12:22:49;;;;;;;11.60;8.43;;;;;;;25.50;55.73;98565.22;4936625;28;20054;-71
2023/08/02 12:28:08;;;;;;;9.98;7.40;;;;;;;24.32;57.58;98569.31;4935953;28;20053;-70
2023/08/02 12:30:34;;;;;;;10.38;8.20;;;;;;;23.62;60.18;98584.88;4931224;28;20074;-71